Terminal Aerodrome Forecast
Issued by NWS

Current Version | Previous Version | Graphics & Text | Print | Product List | Glossary On
Versions: 1 2 3 4 5 6 7 8 9 10 11 12 13 14 15 16 17
000
FTUS41 KILN 281300 AAA
TAFLUK
TAF AMD
KLUK 281356Z 2814/2912 06005KT P6SM SCT250
      TEMPO 2814/2815 BKN025
     FM290800 00000KT 5SM BR SCT250=

USA.gov is the U.S. government's official web portal to all federal, state and local government web resources and services.